createdAt,value
2023-03-10T00:00:42.585Z,81.80
2023-03-10T00:03:13.809Z,81.80
2023-03-10T00:06:09.560Z,82.10
2023-03-10T00:08:42.382Z,81.70
2023-03-10T00:11:31.342Z,82.00
2023-03-10T00:14:19.156Z,82.10
2023-03-10T00:17:00.549Z,82.30
2023-03-10T00:19:29.441Z,82.10
2023-03-10T00:22:06.191Z,82.10
2023-03-10T00:24:38.155Z,82.10
2023-03-10T00:27:06.533Z,82.30
2023-03-10T00:29:39.566Z,81.90
2023-03-10T00:32:26.358Z,82.20
2023-03-10T00:35:11.419Z,81.90
2023-03-10T00:37:57.123Z,81.90
2023-03-10T00:40:41.737Z,82.30
2023-03-10T00:43:14.456Z,81.90
2023-03-10T00:45:44.348Z,82.20
2023-03-10T00:48:25.081Z,81.90
2023-03-10T00:50:55.730Z,81.90
2023-03-10T00:53:40.880Z,80.80
2023-03-10T00:56:14.112Z,81.10
2023-03-10T00:59:03.887Z,81.10
2023-03-10T01:01:40.667Z,81.10
2023-03-10T01:04:29.417Z,80.70
2023-03-10T01:06:57.868Z,81.50
2023-03-10T01:09:26.404Z,80.80
2023-03-10T01:11:54.845Z,80.50
2023-03-10T01:14:34.102Z,80.50
2023-03-10T01:17:07.177Z,80.50
2023-03-10T01:19:41.936Z,80.50
2023-03-10T01:22:41.545Z,80.30
2023-03-10T01:25:16.135Z,80.20
2023-03-10T01:27:56.494Z,80.20
2023-03-10T01:30:55.209Z,80.10
2023-03-10T01:33:53.165Z,79.90
2023-03-10T01:36:34.564Z,79.80
2023-03-10T01:39:18.314Z,79.80
2023-03-10T01:41:54.744Z,79.90
2023-03-10T01:44:42.585Z,80.00
2023-03-10T01:47:26.858Z,79.60
2023-03-10T01:50:23.686Z,79.80
2023-03-10T01:52:58.615Z,79.40
2023-03-10T01:55:32.647Z,79.40
2023-03-10T01:58:13.944Z,79.30
2023-03-10T02:00:50.302Z,79.30
2023-03-10T02:03:31.961Z,79.10
2023-03-10T02:06:13.864Z,79.00
2023-03-10T02:08:46.652Z,79.00
2023-03-10T02:11:16.165Z,78.80
2023-03-10T02:13:46.974Z,78.90
2023-03-10T02:16:40.710Z,78.90
2023-03-10T02:19:27.160Z,79.00
2023-03-10T02:22:06.610Z,78.70
2023-03-10T02:24:46.764Z,78.80
2023-03-10T02:27:19.773Z,78.60
2023-03-10T02:29:59.699Z,78.70
2023-03-10T02:32:38.422Z,78.60
2023-03-10T02:35:12.414Z,78.80
2023-03-10T02:37:51.024Z,79.00
2023-03-10T02:40:40.372Z,78.80
2023-03-10T02:43:33.642Z,78.60
2023-03-10T02:46:25.443Z,78.60
2023-03-10T02:48:54.955Z,78.70
2023-03-10T02:51:33.833Z,78.70
2023-03-10T02:54:11.877Z,78.60
2023-03-10T02:56:43.017Z,78.60
2023-03-10T02:59:18.254Z,78.60
2023-03-10T03:01:51.510Z,78.50
2023-03-10T03:04:22.014Z,78.50
2023-03-10T03:06:52.421Z,78.40
2023-03-10T03:09:22.629Z,78.20
2023-03-10T03:11:53.863Z,78.20
2023-03-10T03:14:24.559Z,78.00
2023-03-10T03:16:53.372Z,77.90
2023-03-10T03:19:21.991Z,78.00
2023-03-10T03:21:53.645Z,77.90
2023-03-10T03:24:22.217Z,77.60
2023-03-10T03:26:50.542Z,77.50
2023-03-10T03:29:24.369Z,77.40
2023-03-10T03:31:54.125Z,77.40
2023-03-10T03:34:26.616Z,77.50
2023-03-10T03:36:59.345Z,77.30
2023-03-10T03:39:46.829Z,77.50
2023-03-10T03:42:18.362Z,77.00
2023-03-10T03:44:54.638Z,77.20
2023-03-10T03:47:27.105Z,77.10
2023-03-10T03:49:55.784Z,77.20
2023-03-10T03:52:24.516Z,76.90
2023-03-10T03:54:53.703Z,76.70
2023-03-10T03:57:22.252Z,76.80
2023-03-10T03:59:50.871Z,76.60
2023-03-10T04:02:21.226Z,76.80
2023-03-10T04:04:50.311Z,76.80
2023-03-10T04:07:19.393Z,76.90
2023-03-10T04:09:48.052Z,76.70
2023-03-10T04:12:16.432Z,76.50
2023-03-10T04:14:48.101Z,76.30
2023-03-10T04:17:21.676Z,76.30
2023-03-10T04:20:04.667Z,76.40
2023-03-10T04:22:36.641Z,76.50
2023-03-10T04:25:09.130Z,76.40
2023-03-10T04:27:38.310Z,76.50
2023-03-10T04:30:09.662Z,76.60
2023-03-10T04:32:49.374Z,76.60
2023-03-10T04:35:22.158Z,76.70
2023-03-10T04:37:54.251Z,76.80
2023-03-10T04:40:25.303Z,76.80
2023-03-10T04:42:54.796Z,76.80
2023-03-10T04:45:24.090Z,76.50
2023-03-10T04:47:57.722Z,76.70
2023-03-10T04:50:26.944Z,76.70
2023-03-10T04:53:01.820Z,76.70
2023-03-10T04:55:35.284Z,76.50
2023-03-10T04:58:09.922Z,76.70
2023-03-10T05:00:47.428Z,76.70
2023-03-10T05:03:24.235Z,76.40
2023-03-10T05:05:57.330Z,76.30
2023-03-10T05:08:49.742Z,76.70
2023-03-10T05:11:20.529Z,76.30
2023-03-10T05:13:52.265Z,76.30
2023-03-10T05:16:23.040Z,76.10
2023-03-10T05:18:55.857Z,76.10
2023-03-10T05:21:31.952Z,76.10
2023-03-10T05:24:03.229Z,76.60
2023-03-10T05:26:35.483Z,76.00
2023-03-10T05:29:07.762Z,76.10
2023-03-10T05:31:45.114Z,76.10
2023-03-10T05:34:33.395Z,76.10
2023-03-10T05:37:08.324Z,75.70
2023-03-10T05:39:46.786Z,75.70
2023-03-10T05:42:27.358Z,75.50
2023-03-10T05:44:59.222Z,75.50
2023-03-10T05:47:30.359Z,75.70
2023-03-10T05:50:22.698Z,75.60
2023-03-10T05:52:51.448Z,75.10
2023-03-10T05:55:22.542Z,75.20
2023-03-10T05:57:56.502Z,75.10
2023-03-10T06:00:29.009Z,75.10
2023-03-10T06:03:42.383Z,75.00
2023-03-10T06:06:27.291Z,76.10
2023-03-10T06:09:11.034Z,74.90
2023-03-10T06:11:55.101Z,74.80
2023-03-10T06:14:29.386Z,74.70
2023-03-10T06:17:09.045Z,74.60
2023-03-10T06:19:44.498Z,74.60
2023-03-10T06:22:25.104Z,74.60
2023-03-10T06:24:56.892Z,74.70
2023-03-10T06:27:33.904Z,74.10
2023-03-10T06:30:08.708Z,73.80
2023-03-10T06:32:44.595Z,73.70
2023-03-10T06:35:24.506Z,74.00
2023-03-10T06:37:57.102Z,73.50
2023-03-10T06:40:29.258Z,73.60
2023-03-10T06:43:01.074Z,73.40
2023-03-10T06:45:43.685Z,73.40
2023-03-10T06:48:41.516Z,73.40
2023-03-10T06:51:29.766Z,73.00
2023-03-10T06:54:27.284Z,72.70
2023-03-10T06:57:25.126Z,72.50
2023-03-10T07:00:31.720Z,72.80
2023-03-10T07:03:22.885Z,72.60
2023-03-10T07:06:05.210Z,72.40
2023-03-10T07:12:26.882Z,72.40
2023-03-10T07:15:40.384Z,72.10
2023-03-10T07:18:30.259Z,72.00
2023-03-10T07:21:36.521Z,72.30
2023-03-10T07:24:25.642Z,71.80
2023-03-10T07:27:20.761Z,72.10
2023-03-10T07:30:00.946Z,72.10
2023-03-10T07:32:49.002Z,71.90
2023-03-10T07:35:40.783Z,72.10
2023-03-10T07:38:33.137Z,72.00
2023-03-10T07:41:22.588Z,71.80
2023-03-10T07:44:17.080Z,71.40
2023-03-10T07:46:57.427Z,71.50
2023-03-10T07:49:31.069Z,71.50
2023-03-10T07:52:15.606Z,71.50
2023-03-10T07:55:00.006Z,71.40
2023-03-10T07:57:48.259Z,71.10
2023-03-10T08:01:04.772Z,71.40
2023-03-10T08:06:53.317Z,70.90
2023-03-10T08:09:33.536Z,71.20
2023-03-10T08:12:03.360Z,71.00
2023-03-10T08:14:33.614Z,70.50
2023-03-10T08:17:03.484Z,70.40
2023-03-10T08:22:23.971Z,70.80
2023-03-10T08:25:03.517Z,70.60
2023-03-10T08:27:41.580Z,70.70
2023-03-10T08:30:17.199Z,71.10
2023-03-10T08:32:56.874Z,70.50
2023-03-10T08:35:32.935Z,70.60
2023-03-10T08:38:14.962Z,70.40
2023-03-10T08:41:10.641Z,69.80
2023-03-10T08:43:46.587Z,69.60
2023-03-10T08:46:27.216Z,69.40
2023-03-10T08:49:06.534Z,69.10
2023-03-10T08:51:51.162Z,68.80
2023-03-10T08:54:31.269Z,68.70
2023-03-10T08:57:10.290Z,68.50
2023-03-10T08:59:45.068Z,68.10
2023-03-10T09:02:36.430Z,67.90
2023-03-10T09:05:14.470Z,67.90
2023-03-10T09:07:48.355Z,68.10
2023-03-10T09:10:20.197Z,68.20
2023-03-10T09:13:07.266Z,68.10
2023-03-10T09:15:46.453Z,68.00
2023-03-10T09:18:33.555Z,67.50
2023-03-10T09:21:17.396Z,67.40
2023-03-10T09:23:51.289Z,67.00
2023-03-10T09:26:34.624Z,67.00
2023-03-10T09:29:13.112Z,66.90
2023-03-10T09:31:43.627Z,66.40
2023-03-10T09:34:40.985Z,65.70
2023-03-10T09:37:18.399Z,65.30
2023-03-10T09:40:05.851Z,65.10
2023-03-10T09:43:13.923Z,64.80
2023-03-10T09:45:56.077Z,64.70
2023-03-10T09:48:53.364Z,64.40
2023-03-10T09:51:41.494Z,64.70
2023-03-10T09:54:42.188Z,65.30
2023-03-10T09:57:19.843Z,64.70
2023-03-10T10:00:00.749Z,65.00
2023-03-10T10:02:45.054Z,64.70
2023-03-10T10:05:35.297Z,64.70
2023-03-10T10:08:30.089Z,64.40
2023-03-10T10:11:27.906Z,63.80
2023-03-10T10:14:29.811Z,63.30
2023-03-10T10:17:10.152Z,63.40
2023-03-10T10:19:46.404Z,63.20
2023-03-10T10:22:31.591Z,63.60
2023-03-10T10:25:25.642Z,63.40
2023-03-10T10:28:50.476Z,62.80
2023-03-10T10:31:30.381Z,62.60
2023-03-10T10:34:07.546Z,62.20
2023-03-10T10:36:45.654Z,61.10
2023-03-10T10:39:28.030Z,61.00
2023-03-10T10:42:22.735Z,60.40
2023-03-10T10:45:39.053Z,59.40
2023-03-10T10:48:35.949Z,58.60
2023-03-10T10:51:16.862Z,57.90
2023-03-10T10:53:56.772Z,58.20
2023-03-10T10:56:33.520Z,58.20
2023-03-10T10:59:11.043Z,57.90
2023-03-10T11:02:02.877Z,57.80
2023-03-10T11:04:59.974Z,58.20
2023-03-10T11:07:39.348Z,58.00
2023-03-10T11:10:23.439Z,58.10
2023-03-10T11:13:02.583Z,57.60
2023-03-10T11:15:46.476Z,57.70
2023-03-10T11:18:32.929Z,57.90
2023-03-10T11:21:16.866Z,57.80
2023-03-10T11:24:00.090Z,57.30
2023-03-10T11:26:42.700Z,57.40
2023-03-10T11:29:35.327Z,57.60
2023-03-10T11:32:28.259Z,57.10
2023-03-10T11:35:22.902Z,57.20
2023-03-10T11:37:58.675Z,57.30
2023-03-10T11:40:51.909Z,57.30
2023-03-10T11:43:35.184Z,56.90
2023-03-10T11:46:17.943Z,56.80
2023-03-10T12:41:02.192Z,53.50
2023-03-10T12:43:56.834Z,53.50
2023-03-10T12:46:41.736Z,53.70
2023-03-10T12:49:32.282Z,54.30
2023-03-10T12:52:24.852Z,54.50
2023-03-10T12:55:25.036Z,54.90
2023-03-10T12:58:05.408Z,55.10
2023-03-10T13:00:50.653Z,55.20
2023-03-10T13:03:38.450Z,55.20
2023-03-10T13:06:30.724Z,55.60
2023-03-10T13:09:03.724Z,55.70
2023-03-10T13:11:49.020Z,55.90
2023-03-10T13:14:51.827Z,56.30
2023-03-10T13:17:40.715Z,57.40
2023-03-10T13:23:37.827Z,56.40
2023-03-10T13:26:10.890Z,55.90
2023-03-10T13:29:08.773Z,55.00
2023-03-10T13:31:42.421Z,54.20
2023-03-10T13:34:20.603Z,52.40
2023-03-10T13:37:15.618Z,51.00
2023-03-10T13:40:21.510Z,50.30
2023-03-10T13:43:28.164Z,49.00
2023-03-10T13:46:21.948Z,49.00
2023-03-10T13:49:31.987Z,49.10
2023-03-10T13:52:35.819Z,48.50
2023-03-10T13:55:34.452Z,48.90
2023-03-10T13:58:17.629Z,49.10
2023-03-10T14:01:02.619Z,49.80
2023-03-10T14:03:38.450Z,49.50
2023-03-10T14:06:18.617Z,49.50
2023-03-10T14:08:53.450Z,49.10
2023-03-10T14:11:37.406Z,49.30
2023-03-10T14:14:11.665Z,48.90
2023-03-10T14:16:54.094Z,49.30
2023-03-10T14:19:46.786Z,49.40
2023-03-10T14:22:37.288Z,49.70
2023-03-10T14:25:17.264Z,49.80
2023-03-10T14:27:54.539Z,50.10
2023-03-10T14:30:26.746Z,50.50
2023-03-10T14:33:02.934Z,50.30
2023-03-10T14:35:35.708Z,50.40
2023-03-10T14:38:30.237Z,50.80
2023-03-10T14:41:03.441Z,51.90
2023-03-10T14:43:55.392Z,53.00
2023-03-10T14:46:27.437Z,54.30
2023-03-10T14:48:59.871Z,55.20
2023-03-10T14:51:53.289Z,55.00
2023-03-10T14:54:25.681Z,56.20
2023-03-10T14:57:05.655Z,56.30
2023-03-10T14:59:52.028Z,56.60
2023-03-10T15:02:27.625Z,57.00
2023-03-10T15:04:59.536Z,57.70
2023-03-10T15:07:28.110Z,58.20
2023-03-10T15:10:11.742Z,58.40
2023-03-10T15:12:56.972Z,59.10
2023-03-10T15:15:36.025Z,59.20
2023-03-10T15:18:15.386Z,59.60
2023-03-10T15:20:50.085Z,59.90
2023-03-10T15:24:41.315Z,60.50
2023-03-10T15:27:25.743Z,60.70
2023-03-10T15:30:06.207Z,60.80
2023-03-10T15:32:35.894Z,60.80
2023-03-10T15:35:16.891Z,61.00
2023-03-10T15:48:08.561Z,60.90
2023-03-10T15:50:52.518Z,60.90
2023-03-10T15:53:20.964Z,61.00
2023-03-10T15:55:54.489Z,61.00
2023-03-10T15:58:45.491Z,60.70
2023-03-10T16:01:40.776Z,60.70
2023-03-10T16:04:35.959Z,60.50
2023-03-10T16:08:07.012Z,60.00
2023-03-10T16:11:28.189Z,60.60
2023-03-10T16:14:37.952Z,60.00
2023-03-10T16:17:23.750Z,60.00
2023-03-10T16:20:40.777Z,60.60
2023-03-10T16:24:05.845Z,60.50
2023-03-10T16:27:42.777Z,61.20
2023-03-10T16:31:04.351Z,60.70
2023-03-10T16:40:38.990Z,61.10
2023-03-10T16:43:46.127Z,61.30
2023-03-10T16:46:59.138Z,61.80
2023-03-10T16:50:02.081Z,61.30
2023-03-10T16:53:20.350Z,61.50
2023-03-10T16:56:33.963Z,61.50
2023-03-10T16:59:42.763Z,61.40
2023-03-10T17:06:36.232Z,61.50
2023-03-10T17:09:25.409Z,62.20
2023-03-10T17:12:08.991Z,61.30
2023-03-10T17:15:11.145Z,61.50
2023-03-10T17:18:07.354Z,61.90
2023-03-10T17:20:47.299Z,62.00
2023-03-10T17:23:25.540Z,62.20
2023-03-10T17:26:21.691Z,62.00
2023-03-10T17:30:06.905Z,62.10
2023-03-10T17:33:10.872Z,62.10
2023-03-10T17:35:53.434Z,62.00
2023-03-10T17:44:56.711Z,62.30
2023-03-10T17:48:01.224Z,62.10
2023-03-10T17:55:33.747Z,61.70
2023-03-10T18:07:40.993Z,61.60
2023-03-10T18:34:15.902Z,62.60
2023-03-10T18:38:17.199Z,62.80
2023-03-10T19:06:51.843Z,63.90
2023-03-10T19:25:00.099Z,64.60
2023-03-10T19:31:41.738Z,65.00
2023-03-10T19:52:27.322Z,65.10
2023-03-10T19:58:58.048Z,65.70
2023-03-10T20:01:50.269Z,66.40
2023-03-10T20:04:47.724Z,66.50
2023-03-10T20:14:14.764Z,67.00
2023-03-10T20:17:00.375Z,67.60
2023-03-10T21:02:25.739Z,68.60
2023-03-10T21:05:04.214Z,68.60
2023-03-10T21:07:47.956Z,68.50
2023-03-10T21:10:32.451Z,68.90
2023-03-10T21:13:18.280Z,68.50
2023-03-10T21:15:57.920Z,68.70
2023-03-10T21:21:31.855Z,68.70
2023-03-10T21:24:18.445Z,69.10
2023-03-10T21:26:51.183Z,68.40
2023-03-10T21:29:33.292Z,68.50
2023-03-10T21:32:18.719Z,68.30
2023-03-10T21:35:12.916Z,68.50
2023-03-10T21:37:54.428Z,68.00
2023-03-10T21:40:32.263Z,68.10
2023-03-10T21:43:21.331Z,68.10
2023-03-10T21:46:02.386Z,67.90
2023-03-10T21:48:44.662Z,67.90
2023-03-10T21:51:27.798Z,68.00
2023-03-10T21:54:21.417Z,67.90
2023-03-10T21:57:00.162Z,68.00
2023-03-10T21:59:50.426Z,67.90
2023-03-10T22:02:44.536Z,67.50
2023-03-10T22:05:18.247Z,67.50
2023-03-10T22:07:59.368Z,67.50
2023-03-10T22:10:38.238Z,67.50
2023-03-10T22:13:11.337Z,67.70
2023-03-10T22:15:59.699Z,67.50
2023-03-10T22:18:28.309Z,67.70
2023-03-10T22:21:02.921Z,68.50
2023-03-10T22:23:37.537Z,68.70
2023-03-10T22:26:19.691Z,68.80
2023-03-10T22:28:52.657Z,69.00
2023-03-10T22:31:26.769Z,69.20
2023-03-10T22:33:55.836Z,69.10
2023-03-10T22:37:09.651Z,69.20
2023-03-10T22:39:52.729Z,69.50
2023-03-10T22:42:27.347Z,68.90
2023-03-10T22:45:07.623Z,69.60
2023-03-10T22:47:51.238Z,69.40
2023-03-10T22:50:29.845Z,70.10
2023-03-10T22:53:03.289Z,69.80
2023-03-10T22:55:46.553Z,70.00
2023-03-10T22:58:16.427Z,70.10
2023-03-10T23:00:50.940Z,69.90
2023-03-10T23:03:21.450Z,70.00
2023-03-10T23:05:56.490Z,70.30
2023-03-10T23:08:24.992Z,70.20
2023-03-10T23:11:37.981Z,70.30
2023-03-10T23:14:24.329Z,70.10
2023-03-10T23:17:06.587Z,70.30
2023-03-10T23:19:45.227Z,70.20
2023-03-10T23:22:22.056Z,70.60
2023-03-10T23:25:00.740Z,70.70
2023-03-10T23:27:43.609Z,71.20
2023-03-10T23:30:27.471Z,70.50
2023-03-10T23:33:02.297Z,70.80
2023-03-10T23:35:42.307Z,71.50
2023-03-10T23:38:24.246Z,71.20
2023-03-10T23:40:55.649Z,71.70
2023-03-10T23:43:36.708Z,71.60
2023-03-10T23:46:09.407Z,71.80
2023-03-10T23:48:37.862Z,71.20
2023-03-10T23:51:06.744Z,70.80
2023-03-10T23:53:36.160Z,70.40
2023-03-10T23:56:12.057Z,70.20
2023-03-10T23:58:53.885Z,69.50
